Wildwood Camp, Iowa
Current Conditions -  °F | °C
As of 9:52 AM on Thursday 18 Dec 2014 (Local Time) from KDVN Reporting Station
Overcast Overcast  
Wind Chill: -6°   Ceiling: 10000
Heat Index: -6°   Visibility: 9mi
Dew Point: -9°   Wind: 0mph
Humidity: 78%   Direction: NA
Pressure: 30.32"   Gusts: NA
Location:  41.7317°N, 90.5411°W
Report Text: KDVN 181552Z AUTO 00000KT 9SM OVC100 M06/M09 A3032 RMK AO2 SLP280 T10561089
Loading
Personal Weather Stations






























Interactive Weather Map New forecast layout! Learn more

10-Day Weather Forecast

Advertisements
Track Severe Weather on mobile